Time;durP1;ratioP1;P1;durP2;ratioP2;P2;SDS_P1;SDS_P2;PMS_P1;PMS_P2;Temp;Humidity;BMP_temperature;BMP_pressure;BME280_temperature;BME280_humidity;BME280_pressure;Samples;Min_cycle;Max_cycle;Signal;HPM_P1;HPM_P2
2021/12/09 00:00:55;;;;;;;4.65;3.10;;;0.80;99.90;;;;;;4419200;32;20795;-69
2021/12/09 00:03:22;;;;;;;3.28;2.40;;;0.80;99.90;;;;;;4419439;32;20124;-70
2021/12/09 00:05:47;;;;;;;1.48;1.37;;;0.70;99.90;;;;;;4421695;32;20073;-69
2021/12/09 00:08:14;;;;;;;3.60;1.87;;;0.70;99.90;;;;;;4418764;32;20476;-70
2021/12/09 00:10:40;;;;;;;1.55;1.23;;;0.60;99.90;;;;;;4419640;32;20094;-69
2021/12/09 00:13:07;;;;;;;1.37;1.17;;;0.50;99.90;;;;;;4419696;32;20171;-69
2021/12/09 00:15:33;;;;;;;13.65;2.03;;;0.60;99.90;;;;;;4423498;32;20077;-70
2021/12/09 00:17:58;;;;;;;0.80;0.80;;;0.60;99.90;;;;;;4422047;32;20605;-70
2021/12/09 00:20:27;;;;;;;2.67;2.40;;;0.60;99.90;;;;;;4420902;32;20514;-69
2021/12/09 00:22:52;;;;;;;1.27;0.93;;;0.60;99.90;;;;;;4419174;32;20435;-69
2021/12/09 00:25:18;;;;;;;1.65;1.55;;;0.60;99.90;;;;;;4423148;32;20090;-70
2021/12/09 00:27:43;;;;;;;1.58;1.50;;;0.60;99.90;;;;;;4420864;32;20251;-70
2021/12/09 00:30:11;;;;;;;2.60;1.87;;;0.60;99.90;;;;;;4419233;32;20588;-69
2021/12/09 00:32:38;;;;;;;1.65;1.55;;;0.60;99.90;;;;;;4419836;32;20426;-69
2021/12/09 00:35:05;;;;;;;2.83;1.87;;;0.50;99.90;;;;;;4419928;32;20109;-69
2021/12/09 00:37:38;;;;;;;1.50;1.37;;;0.50;99.90;;;;;;4418662;32;20091;-69
2021/12/09 00:40:05;;;;;;;10.05;3.08;;;0.40;99.90;;;;;;4419257;32;20077;-69
2021/12/09 00:42:31;;;;;;;1.25;1.17;;;0.50;99.90;;;;;;4418320;32;20101;-69
2021/12/09 00:44:56;;;;;;;1.65;1.52;;;0.50;99.90;;;;;;4422640;32;20616;-70
2021/12/09 00:47:23;;;;;;;16.20;3.72;;;0.30;99.90;;;;;;4418270;32;20065;-69
2021/12/09 00:49:50;;;;;;;3.50;2.58;;;0.30;99.90;;;;;;4419275;32;20509;-69
2021/12/09 00:52:17;;;;;;;1.52;1.42;;;0.20;99.90;;;;;;4418234;32;20065;-69
2021/12/09 00:54:43;;;;;;;1.65;1.55;;;0.30;99.90;;;;;;4416800;32;20065;-69
2021/12/09 00:57:10;;;;;;;1.73;1.37;;;0.40;99.90;;;;;;4421313;32;20483;-69
2021/12/09 00:59:35;;;;;;;1.73;1.62;;;0.40;99.90;;;;;;4417926;32;20091;-70
2021/12/09 01:02:01;;;;;;;2.58;2.33;;;0.50;99.90;;;;;;4418319;32;20141;-69
2021/12/09 01:04:27;;;;;;;1.00;1.00;;;0.50;99.90;;;;;;4419670;32;20399;-69
2021/12/09 01:06:53;;;;;;;3.20;1.95;;;0.50;99.90;;;;;;4422165;32;20057;-69
2021/12/09 01:09:19;;;;;;;3.90;3.05;;;0.40;99.90;;;;;;4417884;32;20081;-69
2021/12/09 01:11:46;;;;;;;1.45;1.35;;;0.40;99.90;;;;;;4420497;32;20065;-68
2021/12/09 01:14:12;;;;;;;3.87;2.58;;;0.40;99.90;;;;;;4416781;32;20513;-69
2021/12/09 01:16:37;;;;;;;1.50;1.40;;;0.30;99.90;;;;;;4420376;32;20077;-69
2021/12/09 01:19:04;;;;;;;1.90;1.80;;;0.30;99.90;;;;;;4419124;32;20069;-70
2021/12/09 01:21:30;;;;;;;1.12;1.10;;;0.30;99.90;;;;;;4419148;32;20066;-69
2021/12/09 01:23:55;;;;;;;3.10;2.08;;;0.40;99.90;;;;;;4420574;32;20065;-69
2021/12/09 01:26:21;;;;;;;3.08;2.80;;;0.40;99.90;;;;;;4418660;32;20135;-70
2021/12/09 01:28:52;;;;;;;9.63;3.22;;;0.50;99.90;;;;;;4421434;32;20568;-69
2021/12/09 01:31:25;;;;;;;4.57;2.78;;;0.60;99.90;;;;;;4418070;32;20073;-70
2021/12/09 01:33:53;;;;;;;2.50;2.28;;;0.50;99.90;;;;;;4415894;32;20141;-69
2021/12/09 01:36:18;;;;;;;3.87;2.58;;;0.40;99.90;;;;;;4420038;32;20434;-69
2021/12/09 01:38:44;;;;;;;1.08;1.08;;;0.40;99.90;;;;;;4419538;32;20093;-70
2021/12/09 01:41:09;;;;;;;1.83;1.73;;;0.30;99.90;;;;;;4417608;32;20062;-69
2021/12/09 01:43:35;;;;;;;4.45;2.20;;;0.40;99.90;;;;;;4419457;32;20566;-69
2021/12/09 01:46:18;;;;;;;1.65;1.55;;;0.30;99.90;;;;;;4417941;32;20173;-70
2021/12/09 01:48:46;;;;;;;1.45;1.35;;;0.30;99.90;;;;;;4421714;32;20123;-69
2021/12/09 01:51:12;;;;;;;2.92;1.75;;;0.40;99.90;;;;;;4417293;32;20499;-69
2021/12/09 01:53:38;;;;;;;2.08;1.95;;;0.40;99.90;;;;;;4419573;32;20100;-69
2021/12/09 01:56:07;;;;;;;3.45;1.83;;;0.50;99.90;;;;;;4419668;32;20148;-69
2021/12/09 01:58:33;;;;;;;1.95;1.30;;;0.50;99.90;;;;;;4419463;32;20070;-69
2021/12/09 02:00:59;;;;;;;2.37;2.15;;;0.40;99.90;;;;;;4419330;32;20105;-69
2021/12/09 02:03:25;;;;;;;5.57;2.87;;;0.40;99.90;;;;;;4416044;32;20085;-69
2021/12/09 02:05:50;;;;;;;3.00;2.10;;;0.50;99.90;;;;;;4417410;32;20140;-69
2021/12/09 02:08:17;;;;;;;2.03;1.87;;;0.50;99.90;;;;;;4416082;32;20066;-69
2021/12/09 02:10:44;;;;;;;2.85;1.75;;;0.50;99.90;;;;;;4417931;32;20102;-69
2021/12/09 02:13:10;;;;;;;3.28;2.75;;;0.50;99.90;;;;;;4419668;32;20069;-71
2021/12/09 02:15:38;;;;;;;2.37;2.17;;;0.40;99.90;;;;;;4417023;32;20553;-69
2021/12/09 02:18:05;;;;;;;2.53;2.33;;;0.40;99.90;;;;;;4417353;32;20081;-69
2021/12/09 02:20:34;;;;;;;3.87;2.83;;;0.40;99.90;;;;;;4419013;32;20097;-69
2021/12/09 02:23:07;;;;;;;5.65;2.87;;;0.50;99.90;;;;;;4416428;32;20460;-69
2021/12/09 02:25:33;;;;;;;3.40;2.65;;;0.50;99.90;;;;;;4420934;32;20132;-69
2021/12/09 02:27:59;;;;;;;1.37;1.27;;;0.50;99.90;;;;;;4419994;32;20078;-69
2021/12/09 02:30:24;;;;;;;3.50;2.50;;;0.50;99.90;;;;;;4416712;32;20403;-69
2021/12/09 02:32:50;;;;;;;2.15;1.95;;;0.40;99.90;;;;;;4416665;32;20131;-70
2021/12/09 02:35:15;;;;;;;3.97;3.00;;;0.30;99.90;;;;;;4417456;32;20094;-70
2021/12/09 02:37:42;;;;;;;1.27;1.27;;;0.40;99.90;;;;;;4418767;32;20093;-69
2021/12/09 02:40:09;;;;;;;1.48;1.35;;;0.40;99.90;;;;;;4417620;32;20098;-69
2021/12/09 02:42:35;;;;;;;1.95;1.35;;;0.40;99.90;;;;;;4416871;32;20097;-69
2021/12/09 02:45:03;;;;;;;1.65;1.37;;;0.30;99.90;;;;;;4419730;32;20078;-69
2021/12/09 02:47:29;;;;;;;9.73;5.50;;;0.30;99.90;;;;;;4416054;32;20086;-69
2021/12/09 02:49:54;;;;;;;5.25;3.12;;;0.20;99.90;;;;;;4417515;32;20120;-69
2021/12/09 02:52:20;;;;;;;2.70;2.20;;;0.30;99.90;;;;;;4419950;32;20093;-69
2021/12/09 02:54:46;;;;;;;4.70;2.92;;;0.40;99.90;;;;;;4422409;32;20081;-70
2021/12/09 02:57:11;;;;;;;1.92;1.50;;;0.50;99.90;;;;;;4418049;32;20074;-69
2021/12/09 02:59:37;;;;;;;4.43;3.20;;;0.40;99.90;;;;;;4418634;32;20089;-69
2021/12/09 03:02:05;;;;;;;8.05;4.85;;;0.40;99.90;;;;;;4416338;32;20538;-70
2021/12/09 03:04:50;;;;;;;5.97;2.97;;;0.50;99.90;;;;;;4417070;32;20069;-70
2021/12/09 03:07:23;;;;;;;2.35;2.12;;;0.40;99.90;;;;;;4407610;32;20090;-70
2021/12/09 03:09:53;;;;;;;6.05;2.90;;;0.40;99.90;;;;;;4418458;32;20593;-70
2021/12/09 03:12:24;;;;;;;6.30;2.23;;;0.40;99.90;;;;;;4418653;32;20085;-69
2021/12/09 03:14:50;;;;;;;5.45;3.22;;;0.40;99.90;;;;;;4416243;32;20058;-69
2021/12/09 03:17:16;;;;;;;2.65;2.20;;;0.40;99.90;;;;;;4420768;32;20128;-69
2021/12/09 03:19:42;;;;;;;1.77;1.67;;;0.40;99.90;;;;;;4420188;32;20058;-69
2021/12/09 03:22:08;;;;;;;10.68;2.95;;;0.40;99.90;;;;;;4420765;32;20082;-70
2021/12/09 03:24:34;;;;;;;11.48;3.33;;;0.40;99.90;;;;;;4419763;32;20081;-68
2021/12/09 03:27:00;;;;;;;6.05;3.47;;;0.40;99.90;;;;;;4418691;32;20128;-69
2021/12/09 03:29:27;;;;;;;8.90;4.15;;;0.40;99.90;;;;;;4415783;32;20107;-69
2021/12/09 03:31:56;;;;;;;2.70;1.73;;;0.30;99.90;;;;;;4419632;32;20120;-69
2021/12/09 03:34:24;;;;;;;1.25;1.20;;;0.30;99.90;;;;;;4417910;32;20435;-70
2021/12/09 03:36:51;;;;;;;6.70;2.83;;;0.30;99.90;;;;;;4420492;32;20109;-69
2021/12/09 03:39:21;;;;;;;2.37;1.95;;;0.30;99.90;;;;;;4420384;32;20077;-69
2021/12/09 03:41:51;;;;;;;1.62;1.42;;;0.30;99.90;;;;;;4416603;32;20398;-68
2021/12/09 03:44:16;;;;;;;0.95;0.95;;;0.30;99.90;;;;;;4415800;32;20081;-70
2021/12/09 03:46:43;;;;;;;4.15;2.83;;;0.30;99.90;;;;;;4415797;32;20478;-69
2021/12/09 03:49:08;;;;;;;6.50;1.80;;;0.20;99.90;;;;;;4420018;32;20077;-70
2021/12/09 03:51:35;;;;;;;1.48;1.37;;;0.30;99.90;;;;;;4419229;32;20077;-69
2021/12/09 03:54:04;;;;;;;3.85;2.80;;;0.30;99.90;;;;;;4417938;32;20073;-69
2021/12/09 03:56:30;;;;;;;11.75;3.10;;;0.40;99.90;;;;;;4418643;32;20085;-69
2021/12/09 03:58:55;;;;;;;3.60;2.65;;;0.40;99.90;;;;;;4420700;32;20065;-69
2021/12/09 04:01:21;;;;;;;3.75;2.03;;;0.20;99.90;;;;;;4414502;32;20517;-69
2021/12/09 04:03:46;;;;;;;3.05;2.72;;;0.20;99.90;;;;;;4420148;32;20082;-69
2021/12/09 04:06:12;;;;;;;1.87;1.73;;;0.20;99.90;;;;;;4418491;32;20086;-69
2021/12/09 04:08:38;;;;;;;9.48;3.83;;;0.20;99.90;;;;;;4418769;32;20066;-70
2021/12/09 04:11:03;;;;;;;2.72;2.50;;;0.20;99.90;;;;;;4417613;32;20073;-70
2021/12/09 04:13:30;;;;;;;3.95;2.65;;;0.20;99.90;;;;;;4420844;32;20070;-69
2021/12/09 04:15:57;;;;;;;4.90;3.17;;;0.20;99.90;;;;;;4421020;32;20065;-70
2021/12/09 04:18:23;;;;;;;3.17;2.00;;;0.20;99.90;;;;;;4416443;32;20121;-69
2021/12/09 04:20:49;;;;;;;2.70;2.47;;;0.20;99.90;;;;;;4415138;32;20089;-69
2021/12/09 04:23:14;;;;;;;1.95;1.60;;;0.20;99.90;;;;;;4420143;32;20120;-69
2021/12/09 04:25:40;;;;;;;4.55;2.28;;;0.30;99.90;;;;;;4417258;32;20081;-69
2021/12/09 04:28:05;;;;;;;2.37;1.80;;;0.30;99.90;;;;;;4417371;32;20077;-70
2021/12/09 04:30:32;;;;;;;2.95;2.65;;;0.30;99.90;;;;;;4419554;32;20155;-69
2021/12/09 04:32:58;;;;;;;2.20;2.00;;;0.40;99.90;;;;;;4411880;32;87209;-69
2021/12/09 04:35:24;;;;;;;1.92;1.83;;;0.40;99.90;;;;;;4419224;32;20087;-70
2021/12/09 04:37:50;;;;;;;1.83;1.73;;;0.30;99.90;;;;;;4421709;32;20444;-69
2021/12/09 04:40:17;;;;;;;7.28;2.50;;;0.20;99.90;;;;;;4423615;32;20085;-69
2021/12/09 04:42:43;;;;;;;7.70;4.37;;;0.30;99.90;;;;;;4419904;32;20172;-70
2021/12/09 04:45:10;;;;;;;4.35;2.83;;;0.40;99.90;;;;;;4420405;32;20068;-68
2021/12/09 04:47:37;;;;;;;2.17;1.98;;;0.40;99.90;;;;;;4419092;32;20066;-69
2021/12/09 04:50:05;;;;;;;4.50;3.58;;;0.30;99.90;;;;;;4417312;32;20140;-69
2021/12/09 04:52:30;;;;;;;6.60;2.28;;;0.30;99.90;;;;;;4418855;32;20073;-69
2021/12/09 04:54:56;;;;;;;14.98;4.62;;;0.30;99.90;;;;;;4419020;32;20066;-69
2021/12/09 04:57:22;;;;;;;2.83;1.90;;;0.40;99.90;;;;;;4418846;32;20070;-69
2021/12/09 04:59:48;;;;;;;0.88;0.88;;;0.30;99.90;;;;;;4418930;32;20077;-69
2021/12/09 05:02:24;;;;;;;3.62;2.45;;;0.20;99.90;;;;;;4418326;32;20069;-70
2021/12/09 05:04:50;;;;;;;5.10;3.17;;;0.30;99.90;;;;;;4418250;32;20074;-69
2021/12/09 05:07:15;;;;;;;1.77;1.67;;;0.40;99.90;;;;;;4422402;32;20070;-69
2021/12/09 05:09:49;;;;;;;1.87;1.77;;;0.40;99.90;;;;;;4418759;32;20089;-70
2021/12/09 05:12:16;;;;;;;1.42;1.35;;;0.40;99.90;;;;;;4422790;32;20386;-69
2021/12/09 05:14:44;;;;;;;3.80;2.80;;;0.30;99.90;;;;;;4417399;32;20081;-69
2021/12/09 05:17:10;;;;;;;1.17;1.12;;;0.40;99.90;;;;;;4418794;32;20074;-68
2021/12/09 05:19:36;;;;;;;2.00;1.90;;;0.30;99.90;;;;;;4420739;32;20438;-70
2021/12/09 05:22:03;;;;;;;6.50;2.45;;;0.30;99.90;;;;;;4413396;32;20134;-69
2021/12/09 05:24:29;;;;;;;2.17;2.05;;;0.30;99.90;;;;;;4415119;32;20542;-69
2021/12/09 05:26:56;;;;;;;0.90;0.90;;;0.30;99.90;;;;;;4415793;32;20058;-69
2021/12/09 05:29:29;;;;;;;6.12;2.78;;;0.30;99.90;;;;;;4416306;32;20137;-69
2021/12/09 05:32:11;;;;;;;1.75;1.65;;;0.30;99.90;;;;;;4422514;32;20271;-69
2021/12/09 05:34:51;;;;;;;3.90;2.40;;;0.20;99.90;;;;;;4418625;32;20098;-70
2021/12/09 05:37:19;;;;;;;;;;;0.20;99.90;;;;;;4418699;32;20428;-69
2021/12/09 05:39:46;;;;;;;1.90;1.73;;;0.30;99.90;;;;;;4415895;32;19969;-69
2021/12/09 05:42:13;;;;;;;6.47;3.33;;;0.30;99.90;;;;;;4419348;32;20090;-69
2021/12/09 05:44:39;;;;;;;6.87;2.67;;;0.30;99.90;;;;;;4419020;32;20123;-69
2021/12/09 05:47:05;;;;;;;3.37;2.58;;;0.30;99.90;;;;;;4418902;32;20065;-69
2021/12/09 05:49:34;;;;;;;1.23;1.23;;;0.40;99.90;;;;;;4418358;32;20098;-69
2021/12/09 05:51:59;;;;;;;2.05;1.33;;;0.30;99.90;;;;;;4421660;32;20125;-69
2021/12/09 05:54:25;;;;;;;4.28;2.58;;;0.20;99.90;;;;;;4423027;32;20070;-69
2021/12/09 05:56:50;;;;;;;4.37;2.60;;;0.20;99.90;;;;;;4420396;32;20467;-69
2021/12/09 05:59:16;;;;;;;7.30;3.53;;;0.20;99.90;;;;;;4416503;32;20319;-69
2021/12/09 06:01:42;;;;;;;2.53;2.17;;;0.30;99.90;;;;;;4411491;32;20596;-69
2021/12/09 06:04:10;;;;;;;3.15;1.98;;;0.40;99.90;;;;;;4419039;32;20077;-70
2021/12/09 06:06:37;;;;;;;4.22;2.60;;;0.30;99.90;;;;;;4417113;32;20069;-69
2021/12/09 06:09:05;;;;;;;4.72;2.45;;;0.40;99.90;;;;;;4415270;32;20053;-68
2021/12/09 06:11:30;;;;;;;1.55;1.45;;;0.40;99.90;;;;;;4423514;32;20085;-69
2021/12/09 06:13:56;;;;;;;2.83;1.95;;;0.40;99.90;;;;;;4415445;32;20090;-69
2021/12/09 06:16:24;;;;;;;2.83;1.73;;;0.30;99.90;;;;;;4416618;32;20066;-69
2021/12/09 06:18:50;;;;;;;2.40;1.75;;;0.40;99.90;;;;;;4405880;32;20555;-69
2021/12/09 06:21:17;;;;;;;1.62;1.52;;;0.40;99.90;;;;;;4417684;32;20108;-69
2021/12/09 06:23:42;;;;;;;4.87;2.85;;;0.40;99.90;;;;;;4415506;32;20062;-69
2021/12/09 06:26:08;;;;;;;12.40;4.47;;;0.40;99.90;;;;;;4407794;32;20132;-69
2021/12/09 06:28:34;;;;;;;1.58;1.48;;;0.40;99.90;;;;;;4410940;32;20089;-69
2021/12/09 06:31:00;;;;;;;1.92;1.73;;;0.40;99.90;;;;;;4404573;32;20555;-69
2021/12/09 06:33:26;;;;;;;2.53;1.73;;;0.20;99.90;;;;;;4404788;32;20058;-69
2021/12/09 06:35:52;;;;;;;1.58;1.48;;;0.30;99.90;;;;;;4411762;32;20102;-69
2021/12/09 06:38:18;;;;;;;3.87;2.53;;;0.20;99.90;;;;;;4413189;32;20073;-69
2021/12/09 06:40:45;;;;;;;1.67;1.58;;;0.10;99.90;;;;;;4417725;32;20085;-69
2021/12/09 06:43:11;;;;;;;2.85;2.28;;;0.20;99.90;;;;;;4415439;32;20145;-70
2021/12/09 06:45:38;;;;;;;6.43;2.90;;;0.20;99.90;;;;;;4421726;32;20133;-70
2021/12/09 06:48:04;;;;;;;2.00;1.35;;;0.20;99.90;;;;;;4415454;32;20089;-71
2021/12/09 06:50:29;;;;;;;22.10;4.65;;;0.20;99.90;;;;;;4414201;32;20124;-71
2021/12/09 06:52:55;;;;;;;3.05;2.78;;;0.20;99.90;;;;;;4413499;32;20088;-70
2021/12/09 06:55:21;;;;;;;1.92;1.77;;;0.20;99.90;;;;;;4407125;32;20859;-69
2021/12/09 06:57:48;;;;;;;3.17;2.60;;;0.20;99.90;;;;;;4401192;32;20089;-72
2021/12/09 07:00:18;;;;;;;1.58;1.40;;;0.30;99.90;;;;;;4405066;32;20056;-70
2021/12/09 07:02:44;;;;;;;6.70;2.62;;;0.40;99.90;;;;;;4400308;32;20105;-69
2021/12/09 07:05:11;;;;;;;1.27;1.23;;;0.30;99.90;;;;;;4404128;32;20077;-70
2021/12/09 07:07:37;;;;;;;7.37;3.15;;;0.20;99.90;;;;;;4401187;32;20070;-70
2021/12/09 07:10:05;;;;;;;2.47;2.03;;;0.20;99.90;;;;;;4398782;32;20286;-69
2021/12/09 07:12:34;;;;;;;2.08;1.67;;;0.20;99.90;;;;;;4401102;32;20136;-69
2021/12/09 07:14:59;;;;;;;2.65;2.42;;;0.10;99.90;;;;;;4403831;32;20605;-69
2021/12/09 07:17:25;;;;;;;11.18;3.78;;;0.20;99.90;;;;;;4399621;32;20101;-70
2021/12/09 07:19:50;;;;;;;5.55;2.58;;;0.20;99.90;;;;;;4400297;32;20073;-69
2021/12/09 07:22:16;;;;;;;7.25;3.78;;;0.20;99.90;;;;;;4398506;32;20100;-69
2021/12/09 07:24:41;;;;;;;13.38;3.12;;;0.20;99.90;;;;;;4404426;32;20843;-69
2021/12/09 07:27:07;;;;;;;0.90;0.90;;;0.20;99.90;;;;;;4406052;32;20177;-69
2021/12/09 07:29:32;;;;;;;2.10;1.77;;;0.20;99.90;;;;;;4403721;32;20089;-69
2021/12/09 07:31:58;;;;;;;0.82;0.80;;;0.10;99.90;;;;;;4400548;32;20533;-69
2021/12/09 07:34:23;;;;;;;3.40;2.75;;;0.20;99.90;;;;;;4399448;32;20148;-70
2021/12/09 07:36:49;;;;;;;0.88;0.88;;;0.10;99.90;;;;;;4402353;32;20354;-70
2021/12/09 07:39:15;;;;;;;22.13;5.03;;;0.10;99.90;;;;;;4398466;32;20180;-70
2021/12/09 07:41:40;;;;;;;0.80;0.77;;;0.10;99.90;;;;;;4400373;32;20105;-70
2021/12/09 07:44:06;;;;;;;7.97;3.75;;;0.10;99.90;;;;;;4401017;32;20507;-69
2021/12/09 07:46:34;;;;;;;3.37;2.78;;;0.10;99.90;;;;;;4393398;32;20288;-70
2021/12/09 07:49:00;;;;;;;3.08;2.37;;;0.10;99.90;;;;;;4402004;32;20439;-70
2021/12/09 07:51:26;;;;;;;18.08;2.87;;;0.10;99.90;;;;;;4399576;32;20089;-69
2021/12/09 07:53:52;;;;;;;5.45;2.87;;;0.10;99.90;;;;;;4396692;32;20145;-69
2021/12/09 07:56:19;;;;;;;4.10;2.53;;;0.20;99.90;;;;;;4404239;32;20065;-69
2021/12/09 07:58:45;;;;;;;19.02;3.25;;;0.10;99.90;;;;;;4397852;32;20098;-70
2021/12/09 08:01:11;;;;;;;4.93;2.58;;;0.10;99.90;;;;;;4397679;32;20097;-69
2021/12/09 08:03:37;;;;;;;13.15;3.50;;;0.10;99.90;;;;;;4405888;32;20082;-70
2021/12/09 08:06:04;;;;;;;1.95;1.35;;;0.20;99.90;;;;;;4396863;32;20212;-69
2021/12/09 08:08:30;;;;;;;2.87;2.58;;;0.20;99.90;;;;;;4395347;32;20275;-69
2021/12/09 08:10:55;;;;;;;3.08;1.90;;;0.20;99.90;;;;;;4405725;32;20145;-69
2021/12/09 08:13:22;;;;;;;1.87;1.60;;;0.20;99.90;;;;;;4401309;32;20892;-68
2021/12/09 08:15:50;;;;;;;2.00;1.75;;;0.10;99.90;;;;;;4405575;32;20088;-68
2021/12/09 08:20:48;;;;;;;3.12;2.37;;;0.20;99.90;;;;;;4405227;32;20553;-68
2021/12/09 08:23:14;;;;;;;2.70;2.28;;;0.20;99.90;;;;;;4405319;32;20442;-69
2021/12/09 08:25:41;;;;;;;1.17;1.17;;;0.20;99.90;;;;;;4400307;32;20069;-67
2021/12/09 08:28:07;;;;;;;4.50;2.00;;;0.20;99.90;;;;;;4401902;32;20522;-68
2021/12/09 08:30:33;;;;;;;3.47;2.33;;;0.30;99.90;;;;;;4403253;32;20089;-69
2021/12/09 08:32:59;;;;;;;3.15;2.33;;;0.30;99.90;;;;;;4404715;32;20658;-69
2021/12/09 08:35:24;;;;;;;3.30;2.35;;;0.20;99.90;;;;;;4407720;32;20074;-69
2021/12/09 08:37:51;;;;;;;6.65;3.83;;;0.20;99.90;;;;;;4413448;32;20828;-69
2021/12/09 08:40:18;;;;;;;4.18;2.80;;;0.20;99.90;;;;;;4412838;32;20529;-69
2021/12/09 08:42:44;;;;;;;4.50;3.00;;;0.20;99.90;;;;;;4411127;32;20090;-68
2021/12/09 08:45:11;;;;;;;1.70;1.60;;;0.20;99.90;;;;;;4412908;32;20101;-69
2021/12/09 08:47:39;;;;;;;5.78;3.65;;;0.30;99.90;;;;;;4409885;32;20166;-69
2021/12/09 08:50:09;;;;;;;6.03;3.60;;;0.30;99.90;;;;;;4406493;32;20379;-69
2021/12/09 08:52:35;;;;;;;3.37;2.80;;;0.30;99.90;;;;;;4409812;32;20069;-69
2021/12/09 08:55:02;;;;;;;3.80;2.87;;;0.30;99.90;;;;;;4403655;32;20158;-68
2021/12/09 08:57:27;;;;;;;1.98;1.77;;;0.30;99.90;;;;;;4408887;32;20105;-68
2021/12/09 08:59:53;;;;;;;3.87;2.78;;;0.40;99.90;;;;;;4405403;32;20572;-69
2021/12/09 09:02:19;;;;;;;117.72;4.18;;;0.40;99.90;;;;;;4408719;32;21432;-69
2021/12/09 09:04:45;;;;;;;5.57;2.53;;;0.40;99.90;;;;;;4408933;32;20144;-69
2021/12/09 09:07:10;;;;;;;1.67;1.58;;;0.30;99.90;;;;;;4410177;32;20109;-69
2021/12/09 09:09:38;;;;;;;8.35;3.37;;;0.30;99.90;;;;;;4408790;32;20164;-69
2021/12/09 09:12:06;;;;;;;3.50;2.37;;;0.30;99.90;;;;;;4406154;32;20097;-69
2021/12/09 09:14:32;;;;;;;5.22;2.78;;;0.30;99.90;;;;;;4411565;32;20205;-69
2021/12/09 09:16:59;;;;;;;5.93;2.58;;;0.30;99.90;;;;;;4410120;32;20427;-69
2021/12/09 09:19:25;;;;;;;4.53;3.05;;;0.30;99.90;;;;;;4411821;32;20112;-69
2021/12/09 09:21:52;;;;;;;1.65;1.55;;;0.40;99.90;;;;;;4412450;32;20121;-67
2021/12/09 09:24:17;;;;;;;3.12;2.42;;;0.40;99.90;;;;;;4411853;32;20114;-68
2021/12/09 09:26:43;;;;;;;2.05;1.87;;;0.50;99.90;;;;;;4412305;32;20073;-68
2021/12/09 09:29:09;;;;;;;7.28;3.78;;;0.40;99.90;;;;;;4405848;32;20077;-68
2021/12/09 09:31:35;;;;;;;16.15;4.72;;;0.40;99.90;;;;;;4409407;32;20096;-68
2021/12/09 09:34:03;;;;;;;5.55;2.28;;;0.40;99.90;;;;;;4410893;32;20457;-68
2021/12/09 09:36:29;;;;;;;2.03;1.92;;;0.50;99.90;;;;;;4406635;32;20410;-68
2021/12/09 09:39:00;;;;;;;3.35;2.60;;;0.40;99.90;;;;;;4411834;32;20097;-68
2021/12/09 09:41:32;;;;;;;;;;;0.50;99.90;;;;;;4408119;32;20064;-68
2021/12/09 09:44:09;;;;;;;7.28;2.62;;;0.40;99.90;;;;;;4407105;32;19972;-68
2021/12/09 09:46:34;;;;;;;1.40;1.33;;;0.50;99.90;;;;;;4408738;32;20612;-68
2021/12/09 09:49:04;;;;;;;15.10;4.20;;;0.60;99.90;;;;;;4405731;32;20435;-68
2021/12/09 09:51:30;;;;;;;5.12;1.90;;;0.50;99.90;;;;;;4407788;32;20062;-69
2021/12/09 09:53:56;;;;;;;4.80;1.95;;;0.60;99.90;;;;;;4399441;32;20109;-69
2021/12/09 09:56:24;;;;;;;1.02;0.82;;;0.70;99.90;;;;;;4388306;32;20490;-69
2021/12/09 09:58:57;;;;;;;4.12;2.58;;;0.80;99.90;;;;;;4398839;32;20106;-68
2021/12/09 10:01:24;;;;;;;1.55;1.45;;;0.70;99.90;;;;;;4398638;32;20148;-68
2021/12/09 10:03:57;;;;;;;4.03;3.00;;;0.70;99.90;;;;;;4396010;32;20586;-68
2021/12/09 10:06:22;;;;;;;4.25;3.30;;;0.80;99.90;;;;;;4392260;32;20147;-69
2021/12/09 10:08:48;;;;;;;8.68;3.62;;;0.80;99.90;;;;;;4388587;32;20152;-68
2021/12/09 10:11:14;;;;;;;1.95;1.70;;;0.70;99.90;;;;;;4396263;32;20074;-68
2021/12/09 10:13:42;;;;;;;5.60;1.85;;;0.60;99.90;;;;;;4401937;32;20109;-68
2021/12/09 10:16:20;;;;;;;12.50;3.22;;;0.60;99.90;;;;;;4406797;32;21079;-68
2021/12/09 10:18:48;;;;;;;2.80;2.33;;;0.60;99.90;;;;;;4401450;32;20117;-69
2021/12/09 10:21:30;;;;;;;2.05;1.87;;;0.60;99.90;;;;;;4395542;32;20504;-68
2021/12/09 10:24:00;;;;;;;3.78;3.25;;;0.50;99.90;;;;;;4389766;32;20085;-68
2021/12/09 10:26:37;;;;;;;6.68;3.62;;;0.60;99.90;;;;;;4394144;32;20885;-69
2021/12/09 10:29:09;;;;;;;1.98;1.87;;;0.70;99.90;;;;;;4391209;32;20085;-68
2021/12/09 10:31:43;;;;;;;1.50;1.40;;;0.60;99.90;;;;;;4387572;32;20807;-69
2021/12/09 10:34:17;;;;;;;3.28;2.97;;;0.60;99.90;;;;;;4395144;32;20841;-68
2021/12/09 10:37:20;;;;;;;5.47;2.78;;;0.60;99.90;;;;;;4391575;32;20110;-68
2021/12/09 10:39:57;;;;;;;2.92;2.20;;;0.60;99.90;;;;;;4376899;32;20113;-69
2021/12/09 10:42:27;;;;;;;6.05;3.05;;;0.60;99.90;;;;;;4404129;32;20077;-69
2021/12/09 10:45:05;;;;;;;2.42;2.22;;;0.60;99.90;;;;;;4406125;32;20106;-69
2021/12/09 10:50:26;;;;;;;3.85;3.10;;;0.70;99.90;;;;;;4405948;32;20664;-69
2021/12/09 10:53:00;;;;;;;6.85;2.50;;;0.70;99.90;;;;;;4398628;32;20126;-68
2021/12/09 10:55:30;;;;;;;4.95;3.20;;;0.70;99.90;;;;;;4401059;32;20622;-68
2021/12/09 10:58:03;;;;;;;3.28;1.08;;;0.60;99.90;;;;;;4404196;32;20600;-68
2021/12/09 11:00:40;;;;;;;2.33;1.87;;;0.70;99.90;;;;;;4405707;32;20585;-67
2021/12/09 11:03:10;;;;;;;4.85;2.08;;;0.60;99.90;;;;;;4393651;32;20069;-68
2021/12/09 11:05:40;;;;;;;5.37;2.47;;;0.60;99.90;;;;;;4402903;32;20791;-68
2021/12/09 11:08:25;;;;;;;1.42;1.33;;;0.60;99.90;;;;;;4403308;32;20207;-68
2021/12/09 11:10:58;;;;;;;2.53;1.73;;;0.70;99.90;;;;;;4402848;32;20340;-68
2021/12/09 11:13:24;;;;;;;4.85;2.50;;;0.80;99.90;;;;;;4407239;32;20467;-68
2021/12/09 11:15:54;;;;;;;12.15;3.17;;;0.80;99.90;;;;;;4411504;32;20117;-68
2021/12/09 11:18:30;;;;;;;10.95;4.22;;;0.80;99.90;;;;;;4397490;32;20094;-68
2021/12/09 11:20:56;;;;;;;28.05;3.53;;;0.70;99.90;;;;;;4401237;32;20117;-68
2021/12/09 11:23:33;;;;;;;1.62;1.52;;;0.70;99.90;;;;;;4405956;32;20485;-69
2021/12/09 11:26:26;;;;;;;2.70;2.50;;;0.70;99.90;;;;;;4404307;32;20093;-70
2021/12/09 11:28:56;;;;;;;3.15;2.53;;;0.90;99.90;;;;;;4405657;32;20412;-68
2021/12/09 11:31:25;;;;;;;3.10;2.53;;;1.00;99.90;;;;;;4405180;32;20189;-69
2021/12/09 11:33:56;;;;;;;2.17;1.70;;;0.90;99.90;;;;;;4407421;32;20089;-69
2021/12/09 11:36:40;;;;;;;1.45;1.35;;;0.90;99.90;;;;;;4409743;32;20809;-68
2021/12/09 11:39:11;;;;;;;1.17;1.12;;;0.90;99.90;;;;;;4409437;32;20093;-68
2021/12/09 11:41:38;;;;;;;2.83;1.52;;;1.00;99.90;;;;;;4408707;32;20225;-68
2021/12/09 11:44:08;;;;;;;2.95;2.20;;;0.80;99.90;;;;;;4412264;32;20065;-69
2021/12/09 11:46:34;;;;;;;2.15;1.95;;;0.80;99.90;;;;;;4408222;32;20814;-68
2021/12/09 11:49:00;;;;;;;13.45;3.95;;;0.80;99.90;;;;;;4407367;32;20085;-68
2021/12/09 11:51:26;;;;;;;3.28;2.62;;;0.90;99.90;;;;;;4410037;32;20382;-69
2021/12/09 11:53:56;;;;;;;2.05;1.95;;;0.90;99.90;;;;;;4403882;32;20176;-69
2021/12/09 11:56:35;;;;;;;2.37;2.17;;;0.90;99.90;;;;;;4401139;32;20468;-68
2021/12/09 12:06:36;;;;;;;1.73;1.60;;;0.90;99.90;;;;;;4411760;32;20160;-68
2021/12/09 12:06:48;;;;;;;1.73;1.62;;;0.90;99.90;;;;;;4406754;32;20160;-67
2021/12/09 12:11:40;;;;;;;11.60;3.37;;;0.90;99.90;;;;;;4401481;32;20097;-67
2021/12/09 12:13:50;;;;;;;2.47;2.12;;;0.90;99.90;;;;;;4401941;32;20111;-68
2021/12/09 12:16:46;;;;;;;1.45;1.33;;;0.90;99.90;;;;;;4408753;32;20563;-67
2021/12/09 12:19:32;;;;;;;2.58;1.35;;;0.90;99.90;;;;;;4414451;32;20326;-68
2021/12/09 12:22:09;;;;;;;8.57;2.92;;;1.00;99.90;;;;;;4399203;32;20101;-68
2021/12/09 12:27:38;;;;;;;3.75;3.10;;;0.90;99.90;;;;;;4411348;32;20077;-67
2021/12/09 12:30:23;;;;;;;2.95;1.33;;;1.00;99.90;;;;;;4413406;32;20058;-68
2021/12/09 12:33:10;;;;;;;2.05;1.67;;;1.00;99.90;;;;;;4414035;32;20571;-68
2021/12/09 12:38:32;;;;;;;3.80;2.85;;;0.90;99.90;;;;;;4410732;32;20117;-67
2021/12/09 12:41:08;;;;;;;2.08;1.98;;;0.90;99.90;;;;;;4415122;32;20102;-68
2021/12/09 12:43:41;;;;;;;2.55;1.98;;;0.80;99.90;;;;;;4411413;32;20691;-68
2021/12/09 12:46:21;;;;;;;5.68;2.60;;;0.80;99.90;;;;;;4406157;32;20376;-69
2021/12/09 12:51:33;;;;;;;6.53;4.40;;;0.90;99.90;;;;;;4406167;32;20098;-68
2021/12/09 12:54:25;;;;;;;5.70;3.33;;;0.80;99.90;;;;;;4412815;32;20066;-69
2021/12/09 12:56:56;;;;;;;2.10;1.92;;;0.90;99.90;;;;;;4411357;32;20097;-69
2021/12/09 12:59:28;;;;;;;2.37;2.17;;;0.90;99.90;;;;;;4412405;32;20082;-69
2021/12/09 13:02:06;;;;;;;5.78;2.75;;;0.90;99.90;;;;;;4411669;32;20069;-68
2021/12/09 13:04:52;;;;;;;3.62;2.70;;;0.80;99.90;;;;;;4413270;32;20100;-70
2021/12/09 13:07:30;;;;;;;3.45;2.30;;;0.80;99.90;;;;;;4416108;32;20802;-68
2021/12/09 13:19:05;;;;;;;3.12;2.45;;;0.60;99.90;;;;;;4408300;32;20062;-69
2021/12/09 13:21:43;;;;;;;13.18;3.22;;;0.50;99.90;;;;;;4413589;32;20057;-68
2021/12/09 13:24:31;;;;;;;2.33;2.12;;;0.50;99.90;;;;;;4412148;32;20061;-69
2021/12/09 13:27:05;;;;;;;1.08;1.08;;;0.60;99.90;;;;;;4417219;32;20066;-68
2021/12/09 13:29:42;;;;;;;8.38;2.90;;;0.70;99.90;;;;;;4413650;32;20692;-68
2021/12/09 13:33:02;;;;;;;3.70;2.87;;;0.70;99.90;;;;;;4413990;32;20087;-69
2021/12/09 13:35:41;;;;;;;2.47;2.28;;;0.70;99.90;;;;;;4398120;32;20125;-68